Lynnwood, Washington
Current Conditions -  °F | °C
As of 4:32 AM on Friday 28 Nov 2014 (Local Time) from KPAE Reporting Station
Overcast Overcast  
Wind Chill: 53°   Ceiling: 1300
Heat Index: 53°   Visibility: 10mi
Dew Point: 49°   Wind: 25mph
Humidity: 86%   Direction: 190°S
Pressure: 29.54"   Gusts: NA
Location:  47.83°N, 122.29°W
Report Text: KPAE 281232Z 19022KT 10SM BKN013 OVC019 12/09 A2954 RMK AO2 PK WND 20036/1155 T01170094
Loading
Personal Weather Stations






























Interactive Weather Map New forecast layout! Learn more

10-Day Weather Forecast

Advertisements
Track Severe Weather on mobile